Weather reports worldwide

Advertisment
Badajoz/Talavera La Real, Spain (8330): temperature & dewpoint: 31.05.2020 13:00:00 - 06.06.2020 13:00:00 (CEST)Badajoz/Talavera La Real, Spain (8330): wind speed: 31.05.2020 13:00:00 - 06.06.2020 13:00:00 (CEST)Badajoz/Talavera La Real, Spain (8330): wind direction: 31.05.2020 13:00:00 - 06.06.2020 13:00:00 (CEST)Badajoz/Talavera La Real, Spain (8330): reduced air pressure: 31.05.2020 13:00:00 - 06.06.2020 13:00:00 (CEST)Badajoz/Talavera La Real, Spain (8330): precipitation: 31.05.2020 13:00:00 - 06.06.2020 13:00:00 (CEST)
Date & Time tt [°C] td [°C] ff [km/h] ff [kn] dd ppp [hPa] rr [mm]
06.06.2020 13:00:00 22,9 9,7 8 4 WSW 1011,5 0,0
06.06.2020 12:00:00 21,9 9,4 9 5 W 1011,8 0,0
06.06.2020 11:00:00 19,6 10,0 8 4 W 1012,3 -
06.06.2020 10:00:00 17,8 10,2 8 4 W 1013,4 0,0
06.06.2020 09:00:00 16,5 10,3 8 4 W 1013,8 0,0
06.06.2020 08:00:00 14,0 10,6 4 2 WSW 1014,0 -
06.06.2020 07:00:00 12,9 10,4 4 2 SW 1013,7 0,0
06.06.2020 06:00:00 13,7 10,7 4 2 SSW 1013,4 0,0
06.06.2020 05:00:00 14,7 10,7 8 4 WSW 1013,5 -
06.06.2020 04:00:00 15,6 10,8 8 4 W 1013,8 0,0
06.06.2020 03:00:00 15,8 10,5 8 4 WNW 1014,0 0,0
06.06.2020 02:00:00 18,4 10,7 11 6 W 1014,2 -
06.06.2020 01:00:00 19,9 11,1 11 6 W 1013,8 0,0
06.06.2020 00:00:00 21,3 11,9 13 7 W 1013,6 0,0
05.06.2020 23:00:00 23,1 11,2 8 4 WSW 1012,6 -
05.06.2020 22:00:00 25,3 10,0 8 4 W 1011,4 0,0
05.06.2020 21:00:00 27,7 9,0 9 5 W 1011,0 0,0
05.06.2020 20:00:00 - - - - - - -
05.06.2020 19:00:00 - - - - - - -
05.06.2020 18:00:00 - - - - - - -
05.06.2020 17:00:00 - - - - - - -
05.06.2020 16:00:00 - - - - - - -
05.06.2020 15:00:00 - - - - - - -
05.06.2020 14:00:00 - - - - - - -
05.06.2020 13:00:00 - - - - - - -
05.06.2020 12:00:00 - - - - - - -
05.06.2020 11:00:00 - - - - - - -
05.06.2020 10:00:00 16,9 11,2 8 4 W 1015,0 0,0
05.06.2020 09:00:00 15,4 10,8 8 4 WSW 1015,1 0,0
05.06.2020 08:00:00 12,8 10,0 4 2 SW 1014,6 -
05.06.2020 07:00:00 11,2 9,1 4 2 SW 1014,4 0,0
05.06.2020 06:00:00 11,8 8,8 5 3 SSW 1014,1 0,0
05.06.2020 05:00:00 12,6 8,7 5 3 SW 1013,9 -
05.06.2020 04:00:00 14,1 9,1 9 5 WSW 1013,7 0,0
05.06.2020 03:00:00 14,8 8,9 11 6 W 1013,8 0,0
05.06.2020 02:00:00 15,8 9,2 11 6 W 1013,8 -
05.06.2020 01:00:00 17,2 9,9 13 7 W 1013,5 0,0
05.06.2020 00:00:00 18,8 8,4 11 6 W 1013,2 0,0
04.06.2020 23:00:00 19,9 6,6 15 8 W 1012,3 -
04.06.2020 22:00:00 21,8 6,8 13 7 W 1011,1 0,0
04.06.2020 21:00:00 24,7 9,4 15 8 W 1010,0 0,0
04.06.2020 20:00:00 26,2 9,9 18 10 W 1009,3 -
04.06.2020 19:00:00 26,8 11,7 22 12 W 1009,1 0,0
04.06.2020 18:00:00 27,4 11,8 21 11 W 1009,1 0,0
04.06.2020 17:00:00 25,8 13,3 24 13 WNW 1009,3 -
04.06.2020 16:00:00 25,0 13,9 16 9 W 1009,6 0,0
04.06.2020 15:00:00 24,4 13,3 15 8 W 1010,2 0,0
04.06.2020 14:00:00 23,4 13,3 18 10 W 1010,3 -
04.06.2020 13:00:00 24,4 13,9 21 11 W 1010,4 0,0
04.06.2020 12:00:00 21,9 14,0 16 9 W 1010,3 0,0
04.06.2020 11:00:00 20,0 14,1 13 7 W 1010,4 -
04.06.2020 10:00:00 18,7 14,2 16 9 W 1010,4 0,0
04.06.2020 09:00:00 17,5 14,0 11 6 W 1010,2 0,0
04.06.2020 08:00:00 16,7 13,6 9 5 WSW 1009,8 -
04.06.2020 07:00:00 15,6 13,1 9 5 WSW 1009,6 0,0
04.06.2020 06:00:00 15,9 13,2 5 3 WSW 1009,3 0,0
04.06.2020 05:00:00 16,7 13,0 4 2 SW 1009,3 -
04.06.2020 04:00:00 17,7 13,2 8 4 W 1009,5 0,0
04.06.2020 03:00:00 18,4 13,3 9 5 W 1009,9 0,0
04.06.2020 02:00:00 18,8 13,2 11 6 W 1010,4 -
04.06.2020 01:00:00 20,1 13,3 11 6 W 1010,4 0,0
04.06.2020 00:00:00 21,3 13,5 13 7 W 1010,3 0,0
03.06.2020 23:00:00 22,4 13,7 16 9 W 1009,6 -
03.06.2020 22:00:00 23,9 12,8 18 10 W 1008,9 0,0
03.06.2020 21:00:00 25,9 11,6 21 11 WNW 1008,5 0,0
03.06.2020 20:00:00 27,7 11,7 18 10 W 1008,3 -
03.06.2020 19:00:00 28,8 11,4 15 8 W 1008,2 0,0
03.06.2020 18:00:00 28,7 11,7 16 9 W 1008,8 0,0
03.06.2020 17:00:00 29,0 11,5 16 9 W 1009,4 -
03.06.2020 16:00:00 29,1 11,6 15 8 W 1010,1 0,0
03.06.2020 15:00:00 28,5 11,5 15 8 W 1010,7 0,0
03.06.2020 14:00:00 27,9 11,9 13 7 W 1011,3 -
03.06.2020 13:00:00 26,6 12,3 15 8 W 1012,0 0,0
03.06.2020 12:00:00 25,3 12,2 13 7 W 1012,2 0,0
03.06.2020 11:00:00 23,8 13,3 9 5 W 1012,5 -
03.06.2020 10:00:00 21,9 13,3 9 5 W 1013,0 0,0
03.06.2020 09:00:00 19,6 13,8 5 3 W 1013,1 0,0
03.06.2020 08:00:00 17,0 13,5 4 2 WSW 1013,1 -
03.06.2020 07:00:00 15,9 13,0 5 3 WSW 1013,2 0,0
03.06.2020 06:00:00 16,5 13,4 8 4 SSW 1012,7 0,0
03.06.2020 05:00:00 17,1 13,2 5 3 SW 1012,9 -
03.06.2020 04:00:00 17,6 13,9 5 3 SSW 1013,4 0,0
03.06.2020 03:00:00 18,6 14,3 5 3 W 1013,5 0,0
03.06.2020 02:00:00 19,0 14,5 8 4 W 1014,1 -
03.06.2020 01:00:00 20,0 14,1 13 7 W 1014,0 0,0
03.06.2020 00:00:00 21,6 13,2 9 5 W 1013,6 0,0
02.06.2020 23:00:00 22,1 13,4 9 5 W 1013,3 -
02.06.2020 22:00:00 23,3 13,2 9 5 W 1012,6 0,0
02.06.2020 21:00:00 26,1 11,4 11 6 W 1012,3 0,0
02.06.2020 20:00:00 27,4 11,8 15 8 WNW 1012,0 -
02.06.2020 19:00:00 26,8 10,1 8 4 NW 1012,1 0,0
02.06.2020 18:00:00 29,0 9,2 11 6 W 1012,5 0,0
02.06.2020 17:00:00 28,8 9,5 11 6 W 1012,9 -
02.06.2020 16:00:00 27,3 10,9 8 4 SSW 1013,5 0,0
02.06.2020 15:00:00 27,2 11,2 9 5 SW 1013,9 0,0
02.06.2020 14:00:00 25,7 12,2 5 3 W 1014,5 -
02.06.2020 13:00:00 24,7 12,3 8 4 SSW 1014,8 0,0
02.06.2020 12:00:00 24,5 12,1 9 5 SSW 1015,1 0,0
02.06.2020 11:00:00 23,8 12,1 9 5 S 1014,9 -
02.06.2020 10:00:00 21,6 13,5 5 3 SSE 1015,1 0,0
02.06.2020 09:00:00 19,9 13,8 4 2 SSE 1014,9 0,0
02.06.2020 08:00:00 17,3 14,4 5 3 W 1014,8 -
02.06.2020 07:00:00 17,2 13,7 2 1 W 1014,6 0,0
02.06.2020 06:00:00 18,2 14,3 4 2 WSW 1014,0 0,0
02.06.2020 05:00:00 18,4 14,7 4 2 E 1014,0 -
02.06.2020 04:00:00 18,6 13,9 4 2 WNW 1014,1 0,0
02.06.2020 03:00:00 18,8 14,1 2 1 NE 1014,1 0,0
02.06.2020 02:00:00 19,4 14,0 2 1 NNW 1014,2 -
02.06.2020 01:00:00 21,3 14,0 4 2 SW 1014,2 0,0
02.06.2020 00:00:00 22,4 14,0 8 4 SSW 1014,0 0,0
01.06.2020 23:00:00 22,7 14,0 4 2 SSW 1013,6 -
01.06.2020 22:00:00 24,2 13,4 5 3 SSW 1013,1 0,0
01.06.2020 21:00:00 25,8 12,3 8 4 S 1012,7 0,0
01.06.2020 20:00:00 28,0 11,5 9 5 SSE 1012,0 -
01.06.2020 19:00:00 27,1 11,6 5 3 ESE 1012,4 0,0
01.06.2020 18:00:00 27,5 12,3 5 3 ESE 1012,8 0,0
01.06.2020 17:00:00 27,5 11,9 11 6 SSW 1013,0 -
01.06.2020 16:00:00 26,4 12,5 5 3 S 1013,4 0,0
01.06.2020 15:00:00 25,2 12,4 9 5 S 1014,1 0,0
01.06.2020 14:00:00 23,8 12,1 9 5 SSW 1014,4 -
01.06.2020 13:00:00 24,2 11,5 15 8 SSE 1014,3 0,0
01.06.2020 12:00:00 24,2 12,5 16 9 S 1013,9 0,0
01.06.2020 11:00:00 22,3 14,9 5 3 E 1013,9 -
01.06.2020 10:00:00 21,3 15,6 5 3 ENE 1013,7 0,0
01.06.2020 09:00:00 19,6 15,3 4 2 NNE 1013,5 0,0
01.06.2020 08:00:00 17,5 14,2 2 1 N 1013,5 -
01.06.2020 07:00:00 17,4 14,5 5 3 S 1013,0 0,0
01.06.2020 06:00:00 17,5 14,4 5 3 SE 1012,6 0,0
01.06.2020 05:00:00 18,3 14,6 4 2 S 1012,3 -
01.06.2020 04:00:00 18,8 14,5 2 1 W 1012,1 0,0
01.06.2020 03:00:00 19,7 14,7 4 2 SW 1012,2 0,0
01.06.2020 02:00:00 20,4 14,7 5 3 WSW 1012,2 -
01.06.2020 01:00:00 22,1 14,5 8 4 WSW 1012,4 0,0
01.06.2020 00:00:00 22,7 14,3 8 4 W 1012,4 0,0
31.05.2020 23:00:00 23,4 10,1 2 1 SE 1011,9 -
31.05.2020 22:00:00 26,2 9,9 4 2 SW 1010,3 0,0
31.05.2020 21:00:00 28,7 8,9 5 3 SW 1009,7 0,0
31.05.2020 20:00:00 29,4 7,3 13 7 W 1008,9 -
31.05.2020 19:00:00 31,5 7,9 11 6 SW 1007,5 0,0
31.05.2020 18:00:00 31,8 7,5 9 5 SSW 1007,7 0,0
31.05.2020 17:00:00 32,1 7,0 11 6 W 1007,9 -
31.05.2020 16:00:00 29,9 6,5 8 4 SW 1008,9 0,0
31.05.2020 15:00:00 28,4 13,1 8 4 SSW 1009,6 0,0
31.05.2020 14:00:00 27,0 13,4 5 3 SW 1009,9 -
31.05.2020 13:00:00 26,2 12,6 5 3 W 1010,3 0,0

tt = temperature
td = dewpoint
ff = wind speed
dd = wind direction
ppp = reduced air pressure
rr = precipitation

Next stations